This is the latest recevied weather packets stored in our database for station/object HK6RM-18. If no packets are shown the sender has not sent any weather packets the latest 10 day(s).
| Time | Temp. | Humidity | Pressure | Rain* | Wind** | Luminosity | Snow |
|---|---|---|---|---|---|---|---|
| 1777876619 | 14.44° C | 85% | 1016 hPa | 2.03 mm | - | - | - |
| 1777875719 | 15° C | 85% | 1017 hPa | 2.03 mm | - | - | - |
| 1777874818 | 14.44° C | 83% | 1017 hPa | 1.52 mm | - | - | - |
| 1777873918 | 14.44° C | 84% | 1017 hPa | 0.25 mm | - | - | - |
| 1777873017 | 14.44° C | 83% | 1017 hPa | 0 mm | - | - | - |
| 1777872116 | 14.44° C | 85% | 1017 hPa | 0 mm | - | - | - |
| 1777871214 | 15° C | 84% | 1017 hPa | 0 mm | - | - | - |
| 1777870312 | 14.44° C | 84% | 1017 hPa | 0 mm | - | - | - |
| 1777869411 | 15° C | 84% | 1017 hPa | 0 mm | - | - | - |
| 1777868512 | 14.44° C | 84% | 1017 hPa | 0.25 mm | - | - | - |
| 1777867608 | 15° C | 84% | 1017 hPa | 0.25 mm | - | - | - |
| 1777866707 | 14.44° C | 86% | 1017 hPa | 0 mm | - | - | - |
| 1777865806 | 15° C | 85% | 1017 hPa | 0 mm | - | - | - |
| 1777864905 | 14.44° C | 85% | 1017 hPa | 0 mm | - | - | - |
| 1777864005 | 15° C | 85% | 1017 hPa | 0 mm | - | - | - |
| 1777863104 | 14.44° C | 84% | 1017 hPa | 0 mm | - | - | - |
| 1777862204 | 15° C | 84% | 1017 hPa | 0 mm | - | - | - |
| 1777861303 | 15.56° C | 84% | 1016 hPa | 0 mm | - | - | - |
| 1777860403 | 16.67° C | 85% | 1016 hPa | 0 mm | - | - | - |
| 1777859502 | 17.78° C | 86% | 1016 hPa | 0 mm | - | - | - |
| 1777858603 | 19.44° C | 88% | 1016 hPa | 0 mm | - | - | - |
| 1777857701 | 20.56° C | 89% | 1015 hPa | 0 mm | - | - | - |
| 1777856800 | 15° C | 82% | 1015 hPa | 0 mm | - | - | - |
| 1777855900 | 15.56° C | 82% | 1015 hPa | 0 mm | - | - | - |
| 1777854998 | 16.11° C | 82% | 1015 hPa | 0 mm | - | - | - |
* Rain latest hour (hover to see other rain measurements)
** Current wind speed in m/s (hover to see current wind gust speed)